CheckWX is a tool to help pilots better visualize weather data.  It is not intended as a substitute for an official pre-flight weather briefing.

03:34:22 UTC

EGAE METAR
City of Derry Airport
Derry, United Kingdom
Current

10 hours ago

EGAE 251750Z 24015KT 9999 SCT008 OVC011 16/14 Q1014
Observed
May-25 @ 17:50 UTC
Wind
  • 240° at 15 KTS
Visibility
10,000+ meters
Flight Rules
MVFR
Cloud Levels
  • Scattered at 800' AGL
  • Overcast at 1,100' AGL
Temperature
16°C / 61°F
Dewpoint
14°C / 57°F
Humidity
88%
Altimeter
29.94" Hg
Pressure
1013.92 hPa
Previous

10 hours ago

EGAE 251720Z 25012KT 9999 -DZ SCT008 OVC013 16/14 Q1014
Observed
May-25 @ 17:20 UTC
Wind
  • 250° at 12 KTS
Visibility
10,000+ meters
Flight Rules
MVFR
Conditions
Light Drizzle
Cloud Levels
  • Scattered at 800' AGL
  • Overcast at 1,300' AGL
Temperature
16°C / 61°F
Dewpoint
14°C / 57°F
Humidity
88%
Altimeter
29.94" Hg
Pressure
1013.92 hPa
Previous

11 hours ago

EGAE 251650Z 26009KT 9999 FEW007 SCT008 OVC013 16/14 Q1014
Observed
May-25 @ 16:50 UTC
Wind
  • 260° at 9 KTS
Visibility
10,000+ meters
Flight Rules
MVFR
Cloud Levels
  • Few at 700' AGL
  • Scattered at 800' AGL
  • Overcast at 1,300' AGL
Temperature
16°C / 61°F
Dewpoint
14°C / 57°F
Humidity
88%
Altimeter
29.94" Hg
Pressure
1013.92 hPa